Time;durP1;ratioP1;P1;durP2;ratioP2;P2;SDS_P1;SDS_P2;PMS_P1;PMS_P2;Temp;Humidity;BMP_temperature;BMP_pressure;BME280_temperature;BME280_humidity;BME280_pressure;Samples;Min_cycle;Max_cycle;Signal;HPM_P1;HPM_P2
2023/12/11 00:01:08;;;;;;;2.37;1.83;;;9.90;80.80;8.70;95408.00;;;;5041728;28;20205;-88
2023/12/11 00:03:37;;;;;;;2.87;1.70;;;10.00;80.70;8.70;95415.00;;;;5044052;28;20271;-87
2023/12/11 00:06:05;;;;;;;1.63;1.53;;;10.00;80.70;8.70;95412.00;;;;5038928;28;20270;-88
2023/12/11 00:08:34;;;;;;;2.03;1.40;;;10.00;80.60;8.70;95416.00;;;;5042848;28;20262;-87
2023/12/11 00:11:01;;;;;;;1.40;1.30;;;10.00;80.70;8.80;95418.00;;;;5035946;28;20197;-88
2023/12/11 00:13:28;;;;;;;2.60;1.30;;;10.00;80.90;8.80;95422.00;;;;5035350;28;20205;-88
2023/12/11 00:15:56;;;;;;;2.07;1.10;;;10.10;81.10;8.80;95416.00;;;;5036421;28;20399;-88
2023/12/11 00:18:23;;;;;;;2.17;1.10;;;10.10;81.10;8.80;95421.00;;;;5043884;28;20204;-88
2023/12/11 00:20:52;;;;;;;1.33;0.90;;;10.10;81.10;8.80;95419.00;;;;5026285;28;20197;-87
2023/12/11 00:23:19;;;;;;;1.17;0.80;;;10.10;81.30;8.80;95412.00;;;;5041008;28;20228;-88
2023/12/11 00:25:47;;;;;;;0.87;0.80;;;10.20;81.50;8.90;95418.00;;;;5040347;28;20217;-88
2023/12/11 00:28:15;;;;;;;1.30;0.43;;;10.20;81.70;8.90;95421.00;;;;5035662;28;20631;-87
2023/12/11 00:30:42;;;;;;;0.93;0.67;;;10.20;82.00;8.90;95433.00;;;;5038937;28;20203;-88
2023/12/11 00:33:09;;;;;;;0.63;0.50;;;10.20;82.20;9.00;95426.00;;;;5041188;28;20209;-88
2023/12/11 00:35:37;;;;;;;0.37;0.37;;;10.30;82.50;9.00;95435.00;;;;5037810;28;20240;-87
2023/12/11 00:38:05;;;;;;;0.53;0.30;;;10.30;82.70;9.10;95427.00;;;;5035193;28;20671;-87
2023/12/11 00:40:33;;;;;;;1.03;0.30;;;10.30;82.90;9.20;95428.00;;;;5032379;28;20247;-88
2023/12/11 00:43:00;;;;;;;1.33;0.40;;;10.40;83.30;9.20;95428.00;;;;5044619;28;20225;-88
2023/12/11 00:45:28;;;;;;;1.10;0.40;;;10.40;83.50;9.30;95430.00;;;;5035829;28;20229;-88
2023/12/11 00:47:55;;;;;;;0.40;0.10;;;10.50;83.70;9.30;95434.00;;;;5038637;28;20243;-88
2023/12/11 00:50:22;;;;;;;0.27;0.20;;;10.50;83.70;9.40;95430.00;;;;5041042;28;20223;-88
2023/12/11 00:52:49;;;;;;;0.10;0.10;;;10.60;83.80;9.50;95435.00;;;;5033139;28;20197;-88
2023/12/11 00:55:18;;;;;;;0.10;0.10;;;10.60;83.80;9.50;95441.00;;;;5039101;28;20225;-88
2023/12/11 00:57:45;;;;;;;0.73;0.10;;;10.70;83.90;9.60;95438.00;;;;5035344;28;20657;-88
2023/12/11 01:00:14;;;;;;;0.40;0.20;;;10.70;83.90;9.60;95446.00;;;;5046807;28;20258;-88
2023/12/11 01:02:42;;;;;;;0.73;0.20;;;10.80;83.90;9.70;95441.00;;;;5043362;28;20606;-88
2023/12/11 01:05:10;;;;;;;0.67;0.30;;;10.80;83.90;9.70;95450.00;;;;5045821;28;20296;-88
2023/12/11 01:07:37;;;;;;;0.90;0.20;;;10.90;83.90;9.80;95472.00;;;;5031535;28;20287;-88
2023/12/11 01:10:05;;;;;;;1.00;0.10;;;10.90;83.80;9.90;95475.00;;;;5031318;28;20209;-88
2023/12/11 01:12:35;;;;;;;0.20;0.20;;;11.00;83.80;9.90;95481.00;;;;5042188;28;20261;-88
2023/12/11 01:15:02;;;;;;;0.70;0.20;;;11.00;83.60;10.00;95478.00;;;;5035406;28;20224;-88
2023/12/11 01:17:30;;;;;;;0.53;0.23;;;11.10;83.60;10.00;95466.00;;;;5037452;28;20201;-88
2023/12/11 01:19:57;;;;;;;0.47;0.20;;;11.10;83.50;10.00;95471.00;;;;5037639;28;20224;-88
2023/12/11 01:22:24;;;;;;;0.13;0.10;;;11.20;83.60;10.10;95480.00;;;;5037959;28;20335;-89
2023/12/11 01:24:51;;;;;;;0.80;0.40;;;11.20;84.20;10.10;95481.00;;;;5028688;28;20263;-89
2023/12/11 01:27:18;;;;;;;2.13;0.30;;;11.20;83.40;10.10;95498.00;;;;5045400;28;20201;-88
2023/12/11 01:29:49;;;;;;;0.20;0.20;;;11.30;83.20;10.10;95492.00;;;;5039507;28;20206;-88
2023/12/11 01:32:16;;;;;;;0.50;0.30;;;11.30;83.10;10.20;95484.00;;;;5041792;28;20206;-88
2023/12/11 01:34:43;;;;;;;0.57;0.20;;;11.30;83.00;10.20;95488.00;;;;5043011;28;20228;-88
2023/12/11 01:37:10;;;;;;;1.13;0.30;;;11.40;83.00;10.20;95499.00;;;;5043648;28;20197;-88
2023/12/11 01:39:37;;;;;;;0.40;0.20;;;11.40;82.80;10.20;95499.00;;;;5049466;28;20198;-89
2023/12/11 01:42:05;;;;;;;0.50;0.20;;;11.40;82.70;10.20;95497.00;;;;5051860;28;20196;-89
2023/12/11 01:44:35;;;;;;;0.40;0.27;;;11.40;82.70;10.20;95505.00;;;;5042233;28;20271;-89
2023/12/11 01:47:04;;;;;;;0.40;0.30;;;11.40;82.60;10.30;95497.00;;;;5039118;28;20212;-88
2023/12/11 01:49:31;;;;;;;0.30;0.30;;;11.40;82.60;10.30;95505.00;;;;5038454;28;20216;-88
2023/12/11 01:52:00;;;;;;;0.40;0.40;;;11.50;82.60;10.30;95500.00;;;;5035950;28;20209;-88
2023/12/11 01:54:27;;;;;;;0.17;0.13;;;11.50;82.50;10.30;95488.00;;;;5039819;28;20225;-89
2023/12/11 01:56:55;;;;;;;0.30;0.23;;;11.50;82.50;10.40;95482.00;;;;5047457;28;20258;-88
2023/12/11 01:59:24;;;;;;;0.90;0.30;;;11.50;82.30;10.40;95463.00;;;;5049094;28;20246;-88
2023/12/11 02:01:52;;;;;;;0.73;0.53;;;11.50;82.10;10.40;95473.00;;;;5035918;28;20550;-88
2023/12/11 02:04:21;;;;;;;0.30;0.20;;;11.60;82.10;10.40;95473.00;;;;5041816;28;20276;-88
2023/12/11 02:06:48;;;;;;;0.90;0.23;;;11.60;82.00;10.40;95466.00;;;;5036684;28;21353;-89
2023/12/11 02:09:15;;;;;;;0.30;0.20;;;11.60;82.10;10.40;95458.00;;;;5042642;28;20256;-89
2023/12/11 02:11:44;;;;;;;0.50;0.33;;;11.60;82.10;10.40;95464.00;;;;5041821;28;20208;-89
2023/12/11 02:14:11;;;;;;;1.40;0.37;;;11.60;82.00;10.50;95467.00;;;;5040007;28;20286;-89
2023/12/11 02:16:38;;;;;;;0.40;0.30;;;11.60;81.90;10.50;95474.00;;;;5042838;28;20197;-89
2023/12/11 02:19:06;;;;;;;0.57;0.20;;;11.60;81.80;10.50;95477.00;;;;5036073;28;20247;-88
2023/12/11 02:21:34;;;;;;;1.17;0.47;;;11.70;82.00;10.50;95505.00;;;;5050168;28;20193;-89
2023/12/11 02:24:09;;;;;;;2.07;0.30;;;11.70;81.90;10.50;95506.00;;;;5037173;28;20398;-89
2023/12/11 02:26:38;;;;;;;0.70;0.20;;;11.70;81.90;10.50;95517.00;;;;5048544;28;20203;-88
2023/12/11 02:29:05;;;;;;;0.20;0.20;;;11.70;82.00;10.50;95525.00;;;;5050140;28;20245;-88
2023/12/11 02:31:32;;;;;;;1.43;0.40;;;11.70;82.00;10.60;95513.00;;;;5038065;28;20205;-88
2023/12/11 02:34:00;;;;;;;0.73;0.40;;;11.70;81.90;10.60;95513.00;;;;5039767;28;20647;-89
2023/12/11 02:36:27;;;;;;;0.57;0.30;;;11.80;82.00;10.60;95515.00;;;;5045157;28;20255;-88
2023/12/11 02:38:54;;;;;;;0.40;0.30;;;11.80;82.10;10.60;95511.00;;;;5045744;28;20196;-88
2023/12/11 02:41:21;;;;;;;1.07;0.47;;;11.80;82.00;10.60;95522.00;;;;5042915;28;20718;-89
2023/12/11 02:43:50;;;;;;;0.80;0.40;;;11.80;82.10;10.60;95520.00;;;;5044304;28;20224;-89
2023/12/11 02:46:17;;;;;;;1.00;0.40;;;11.80;81.90;10.70;95505.00;;;;5043697;28;20207;-88
2023/12/11 02:48:44;;;;;;;1.70;0.47;;;11.80;81.90;10.70;95516.00;;;;5042947;28;20609;-88
2023/12/11 02:51:12;;;;;;;0.30;0.30;;;11.80;82.50;10.70;95525.00;;;;5040594;28;20208;-88
2023/12/11 02:53:38;;;;;;;0.60;0.37;;;11.80;82.00;10.70;95528.00;;;;5042825;28;20200;-88
2023/12/11 02:56:07;;;;;;;1.87;0.40;;;11.90;82.20;10.70;95531.00;;;;5049093;28;20295;-88
2023/12/11 02:58:34;;;;;;;1.30;0.30;;;11.80;82.20;10.70;95544.00;;;;5052195;28;20250;-89
2023/12/11 03:01:03;;;;;;;0.43;0.30;;;11.80;82.20;10.70;95547.00;;;;5042450;28;20260;-88
2023/12/11 03:03:30;;;;;;;1.73;0.50;;;11.90;82.20;10.70;95554.00;;;;5042198;28;20267;-89
2023/12/11 03:05:58;;;;;;;0.57;0.30;;;11.90;82.40;10.70;95562.00;;;;5045192;28;20213;-88
2023/12/11 03:08:25;;;;;;;2.13;0.30;;;11.90;82.50;10.70;95560.00;;;;5033450;28;20204;-88
2023/12/11 03:10:52;;;;;;;1.33;0.40;;;11.90;82.50;10.70;95555.00;;;;5032627;28;20189;-88
2023/12/11 03:13:19;;;;;;;0.37;0.30;;;11.90;82.60;10.70;95544.00;;;;5040453;28;20201;-89
2023/12/11 03:15:47;;;;;;;1.07;0.40;;;11.90;82.50;10.70;95555.00;;;;5047383;28;20227;-88
2023/12/11 03:18:15;;;;;;;0.80;0.40;;;11.80;82.50;10.70;95553.00;;;;5044904;28;20197;-88
2023/12/11 03:20:43;;;;;;;0.50;0.30;;;11.90;82.70;10.70;95550.00;;;;5041881;28;20193;-88
2023/12/11 03:23:10;;;;;;;1.10;0.50;;;11.90;82.80;10.70;95546.00;;;;5042632;28;20608;-88
2023/12/11 03:25:37;;;;;;;2.83;0.70;;;11.80;82.90;10.70;95567.00;;;;5042544;28;20220;-88
2023/12/11 03:28:04;;;;;;;1.23;0.43;;;11.80;82.90;10.70;95549.00;;;;5043791;28;20208;-88
2023/12/11 03:30:32;;;;;;;0.73;0.40;;;11.90;83.00;10.70;95546.00;;;;5039279;28;20669;-88
2023/12/11 03:32:59;;;;;;;1.33;0.70;;;11.80;82.90;10.70;95557.00;;;;5036643;28;20267;-88
2023/12/11 03:35:28;;;;;;;1.17;0.43;;;11.80;82.90;10.70;95526.00;;;;5044927;28;20220;-88
2023/12/11 03:37:55;;;;;;;0.47;0.43;;;11.80;82.90;10.70;95514.00;;;;5039082;28;20262;-88
2023/12/11 03:40:22;;;;;;;1.07;0.50;;;11.80;82.90;10.70;95518.00;;;;5046560;28;20202;-88
2023/12/11 03:42:49;;;;;;;0.30;0.30;;;11.80;82.90;10.70;95517.00;;;;5042094;28;20238;-88
2023/12/11 03:45:16;;;;;;;0.60;0.47;;;11.80;82.90;10.70;95517.00;;;;5050167;28;20243;-88
2023/12/11 03:47:44;;;;;;;1.20;0.30;;;11.80;82.90;10.70;95515.00;;;;5042498;28;20189;-88
2023/12/11 03:50:11;;;;;;;1.20;0.33;;;11.80;82.90;10.70;95510.00;;;;5047479;28;20196;-88
2023/12/11 03:52:39;;;;;;;0.60;0.40;;;11.80;82.90;10.60;95508.00;;;;5040639;28;20205;-88
2023/12/11 03:55:08;;;;;;;0.87;0.53;;;11.80;82.90;10.60;95511.00;;;;5048997;28;20225;-88
2023/12/11 03:57:35;;;;;;;1.07;0.47;;;11.80;82.90;10.70;95509.00;;;;5041852;28;20193;-89
2023/12/11 04:00:02;;;;;;;0.60;0.40;;;11.80;82.90;10.70;95510.00;;;;5040320;28;20204;-89
2023/12/11 04:02:30;;;;;;;0.50;0.40;;;11.80;82.90;10.70;95509.00;;;;5045738;28;20204;-89
2023/12/11 04:04:57;;;;;;;0.97;0.40;;;11.80;82.90;10.70;95515.00;;;;5047483;28;20228;-88
2023/12/11 04:07:24;;;;;;;0.50;0.30;;;11.80;82.90;10.60;95515.00;;;;5043701;28;20699;-88
2023/12/11 04:09:53;;;;;;;0.63;0.40;;;11.80;82.90;10.60;95515.00;;;;5034629;28;20647;-88
2023/12/11 04:12:20;;;;;;;0.90;0.40;;;11.80;82.90;10.70;95523.00;;;;5043013;28;20576;-88
2023/12/11 04:14:48;;;;;;;0.57;0.57;;;11.80;83.00;10.70;95507.00;;;;5033739;28;20266;-88
2023/12/11 04:17:15;;;;;;;0.47;0.30;;;11.80;82.90;10.70;95522.00;;;;5042147;28;20262;-88
2023/12/11 04:19:42;;;;;;;2.10;0.47;;;11.80;83.10;10.70;95527.00;;;;5034549;28;20255;-88
2023/12/11 04:22:10;;;;;;;1.00;0.50;;;11.80;83.20;10.70;95530.00;;;;5043772;28;20559;-88
2023/12/11 04:24:37;;;;;;;0.80;0.40;;;11.80;83.30;10.70;95519.00;;;;5043275;28;20688;-88
2023/12/11 04:27:06;;;;;;;1.30;0.30;;;11.90;83.30;10.70;95535.00;;;;5048571;28;20204;-88
2023/12/11 04:29:33;;;;;;;0.63;0.40;;;11.90;83.20;10.70;95528.00;;;;5042621;28;20576;-88
2023/12/11 04:32:00;;;;;;;0.27;0.27;;;11.90;83.30;10.70;95536.00;;;;5033467;28;20285;-88
2023/12/11 04:34:28;;;;;;;0.70;0.30;;;11.90;83.30;10.80;95538.00;;;;5041503;28;20220;-88
2023/12/11 04:36:55;;;;;;;1.53;0.50;;;11.90;83.30;10.80;95535.00;;;;5042129;28;20189;-88
2023/12/11 04:39:22;;;;;;;0.83;0.30;;;11.90;83.30;10.80;95533.00;;;;5042385;28;20201;-88
2023/12/11 04:41:51;;;;;;;1.07;0.63;;;12.00;83.20;10.80;95529.00;;;;5041434;28;20493;-88
2023/12/11 04:44:20;;;;;;;1.23;0.60;;;12.00;83.20;10.80;95531.00;;;;5030575;28;20234;-88
2023/12/11 04:46:47;;;;;;;1.20;0.40;;;12.00;83.20;10.80;95524.00;;;;5041209;28;20193;-88
2023/12/11 04:49:15;;;;;;;0.70;0.30;;;12.00;83.20;10.90;95527.00;;;;5057625;28;20238;-88
2023/12/11 04:51:42;;;;;;;1.40;0.53;;;12.00;83.20;10.90;95524.00;;;;5052999;28;20201;-88
2023/12/11 04:54:10;;;;;;;0.30;0.20;;;12.00;83.10;10.90;95527.00;;;;5054040;28;20667;-88
2023/12/11 04:56:38;;;;;;;0.37;0.37;;;12.00;83.10;10.90;95529.00;;;;5044792;28;20730;-89
2023/12/11 04:59:05;;;;;;;0.67;0.40;;;12.00;83.20;10.90;95523.00;;;;5052686;28;20250;-88
2023/12/11 05:01:34;;;;;;;0.80;0.40;;;12.00;83.20;10.90;95522.00;;;;5042104;28;20284;-88
2023/12/11 05:04:01;;;;;;;0.70;0.50;;;12.00;83.20;10.90;95521.00;;;;5042909;28;20201;-88
2023/12/11 05:06:29;;;;;;;1.10;0.60;;;12.10;83.30;11.00;95513.00;;;;5045057;28;20203;-88
2023/12/11 05:08:56;;;;;;;0.80;0.53;;;12.10;83.40;11.00;95516.00;;;;5043616;28;20193;-88
2023/12/11 05:11:23;;;;;;;1.90;1.37;;;12.10;83.40;11.00;95522.00;;;;5052085;28;20212;-87
2023/12/11 05:13:51;;;;;;;1.37;1.20;;;12.10;83.40;11.00;95510.00;;;;5050074;28;20759;-87
2023/12/11 05:16:23;;;;;;;1.03;0.90;;;12.10;83.40;11.00;95492.00;;;;5035025;28;20201;-90
2023/12/11 05:18:54;;;;;;;0.93;0.93;;;12.10;83.30;11.00;95499.00;;;;5039671;28;20626;-89
2023/12/11 05:21:22;;;;;;;1.03;0.87;;;12.20;83.30;11.10;95494.00;;;;5050121;28;20201;-88
2023/12/11 05:23:50;;;;;;;0.60;0.50;;;12.20;83.30;11.10;95490.00;;;;5050363;28;20575;-89
2023/12/11 05:26:27;;;;;;;1.07;0.60;;;12.10;83.90;11.10;95493.00;;;;5060013;28;20247;-85
2023/12/11 05:28:55;;;;;;;1.60;0.63;;;12.30;83.20;11.10;95488.00;;;;5041342;28;20208;-89
2023/12/11 05:31:22;;;;;;;0.50;0.50;;;12.20;83.20;11.10;95489.00;;;;5051905;28;20279;-89
2023/12/11 05:33:51;;;;;;;0.30;0.30;;;12.30;83.40;11.20;95495.00;;;;5043069;28;20208;-89
2023/12/11 05:36:18;;;;;;;1.23;0.77;;;12.30;83.30;11.10;95503.00;;;;5046577;28;20254;-89
2023/12/11 05:38:45;;;;;;;0.97;0.80;;;12.30;83.00;11.10;95500.00;;;;5045997;28;20652;-90
2023/12/11 05:41:12;;;;;;;1.63;0.87;;;12.30;82.90;11.10;95522.00;;;;5041674;28;20259;-89
2023/12/11 05:43:40;;;;;;;0.80;0.80;;;12.30;82.90;11.10;95529.00;;;;5047901;28;20274;-89
2023/12/11 05:46:07;;;;;;;1.70;0.80;;;12.30;82.90;11.20;95533.00;;;;5039936;28;20225;-89
2023/12/11 05:48:34;;;;;;;1.70;0.80;;;12.30;83.00;11.20;95539.00;;;;5051911;28;20201;-89
2023/12/11 05:51:03;;;;;;;1.40;0.80;;;12.30;83.00;11.20;95528.00;;;;5047536;28;20243;-89
2023/12/11 05:53:31;;;;;;;0.80;0.80;;;12.30;83.10;11.20;95524.00;;;;5052640;28;20205;-89
2023/12/11 05:55:58;;;;;;;1.10;0.93;;;12.30;83.10;11.20;95523.00;;;;5048399;28;20216;-89
2023/12/11 05:58:25;;;;;;;0.70;0.70;;;12.30;83.20;11.20;95509.00;;;;5039857;28;20799;-90
2023/12/11 06:00:52;;;;;;;0.70;0.50;;;12.30;83.20;11.30;95501.00;;;;5046619;28;20193;-89
2023/12/11 06:03:20;;;;;;;1.03;0.60;;;12.40;83.30;11.30;95498.00;;;;5040495;28;20641;-89
2023/12/11 06:05:47;;;;;;;0.40;0.40;;;12.40;83.40;11.30;95488.00;;;;5036643;28;20228;-88
2023/12/11 06:08:16;;;;;;;0.50;0.40;;;12.40;83.30;11.30;95485.00;;;;5044432;28;20605;-89
2023/12/11 06:10:44;;;;;;;1.23;0.40;;;12.40;83.00;11.30;95489.00;;;;5035270;28;20680;-90
2023/12/11 06:13:11;;;;;;;0.93;0.50;;;12.40;82.80;11.30;95487.00;;;;5041372;28;20201;-89
2023/12/11 06:15:38;;;;;;;0.40;0.40;;;12.40;82.70;11.30;95474.00;;;;5032442;28;20224;-89
2023/12/11 06:18:07;;;;;;;0.47;0.47;;;12.40;82.40;11.20;95498.00;;;;5048236;28;20749;-90
2023/12/11 06:20:35;;;;;;;0.30;0.30;;;12.40;82.20;11.20;95495.00;;;;5036784;28;20251;-89
2023/12/11 06:23:02;;;;;;;0.30;0.20;;;12.40;81.90;11.20;95500.00;;;;5050271;28;20213;-89
2023/12/11 06:25:31;;;;;;;1.17;0.40;;;12.40;81.70;11.10;95500.00;;;;5043603;28;20225;-90
2023/12/11 06:27:59;;;;;;;0.83;0.60;;;12.30;81.50;11.10;95487.00;;;;5042605;28;20251;-84
2023/12/11 06:30:26;;;;;;;0.97;0.63;;;12.20;81.40;11.00;95483.00;;;;5037992;28;20236;-82
2023/12/11 06:32:53;;;;;;;0.33;0.33;;;12.20;81.40;11.00;95476.00;;;;5031195;28;20201;-82
2023/12/11 06:35:22;;;;;;;0.70;0.43;;;12.20;81.40;10.90;95469.00;;;;5046177;28;20229;-83
2023/12/11 06:37:49;;;;;;;0.90;0.60;;;12.10;81.10;10.90;95450.00;;;;5045197;28;20251;-83
2023/12/11 06:40:17;;;;;;;0.53;0.53;;;12.10;81.00;10.80;95451.00;;;;5054523;28;20193;-83
2023/12/11 06:42:46;;;;;;;0.43;0.43;;;12.00;80.60;10.70;95452.00;;;;5036431;28;20268;-82
2023/12/11 06:45:13;;;;;;;0.47;0.47;;;12.00;80.20;10.60;95443.00;;;;5029869;28;20279;-82
2023/12/11 06:47:40;;;;;;;0.60;0.60;;;12.00;80.10;10.50;95454.00;;;;5043608;28;20286;-82
2023/12/11 06:50:08;;;;;;;0.73;0.60;;;11.90;79.80;10.40;95442.00;;;;5043161;28;20552;-82
2023/12/11 06:52:36;;;;;;;0.77;0.77;;;11.80;79.50;10.30;95442.00;;;;5038080;28;20656;-82
2023/12/11 06:55:03;;;;;;;1.40;1.30;;;11.70;79.20;10.20;95452.00;;;;5041647;28;20221;-82
2023/12/11 06:57:30;;;;;;;1.23;1.13;;;11.70;79.10;10.10;95448.00;;;;5046359;28;20267;-83
2023/12/11 07:00:02;;;;;;;1.10;0.87;;;11.60;79.00;10.00;95463.00;;;;5042655;28;20198;-82
2023/12/11 07:02:29;;;;;;;1.30;1.20;;;11.50;78.80;10.00;95471.00;;;;5041726;28;20694;-82
2023/12/11 07:04:56;;;;;;;1.10;1.10;;;11.50;79.00;9.90;95463.00;;;;5034057;28;20580;-82
2023/12/11 07:07:26;;;;;;;1.20;1.10;;;11.40;79.10;9.80;95450.00;;;;5036513;28;20265;-82
2023/12/11 07:09:53;;;;;;;1.10;1.00;;;11.30;79.50;9.80;95449.00;;;;5051048;28;20193;-82
2023/12/11 07:12:21;;;;;;;1.00;0.90;;;11.20;80.20;9.80;95444.00;;;;5051876;28;20223;-82
2023/12/11 07:14:49;;;;;;;1.17;0.93;;;11.20;80.50;9.80;95448.00;;;;5042223;28;20574;-82
2023/12/11 07:17:18;;;;;;;1.43;1.10;;;11.20;80.90;9.80;95448.00;;;;5047609;28;20679;-82
2023/12/11 07:19:45;;;;;;;0.80;0.80;;;11.10;81.30;9.80;95447.00;;;;5053482;28;20251;-82
2023/12/11 07:22:13;;;;;;;1.27;0.90;;;11.10;81.80;9.80;95443.00;;;;5043472;28;20193;-82
2023/12/11 07:24:40;;;;;;;0.77;0.77;;;11.10;82.30;9.90;95448.00;;;;5046050;28;20212;-82
2023/12/11 07:27:08;;;;;;;1.13;0.90;;;11.10;82.70;9.90;95442.00;;;;5034104;28;20633;-82
2023/12/11 07:29:35;;;;;;;1.27;1.17;;;11.20;82.80;9.90;95446.00;;;;5052369;28;20248;-82
2023/12/11 07:32:02;;;;;;;1.23;1.00;;;11.20;82.80;10.00;95430.00;;;;5035365;28;20273;-82
2023/12/11 07:34:31;;;;;;;1.10;1.00;;;11.20;83.10;10.00;95423.00;;;;5044279;28;20220;-82
2023/12/11 07:36:58;;;;;;;1.63;1.07;;;11.30;83.40;10.10;95433.00;;;;5042838;28;20193;-82
2023/12/11 07:39:26;;;;;;;0.77;0.77;;;11.30;83.70;10.10;95432.00;;;;5037138;28;20205;-82
2023/12/11 07:41:57;;;;;;;1.77;1.03;;;11.30;84.60;10.20;95442.00;;;;5036545;28;20250;-84
2023/12/11 07:44:24;;;;;;;1.00;0.90;;;11.40;84.00;10.20;95422.00;;;;5044395;28;20255;-84
2023/12/11 07:46:52;;;;;;;1.20;1.10;;;11.40;84.10;10.30;95426.00;;;;5043643;28;20224;-84
2023/12/11 07:52:23;;;;;;;1.57;1.00;;;11.60;84.20;10.40;95401.00;;;;5149136;27;20579;-84
2023/12/11 07:54:50;;;;;;;0.80;0.80;;;11.60;84.20;10.50;95407.00;;;;5124189;27;20218;-84
2023/12/11 07:57:18;;;;;;;1.03;0.70;;;11.70;84.30;10.60;95409.00;;;;5114149;28;20213;-84
2023/12/11 07:59:46;;;;;;;0.97;0.83;;;11.70;84.40;10.60;95401.00;;;;5105113;28;20199;-84
2023/12/11 08:02:13;;;;;;;1.10;0.70;;;11.80;84.30;10.70;95403.00;;;;5106891;28;20244;-84
2023/12/11 08:04:40;;;;;;;3.73;1.43;;;11.80;84.20;10.80;95422.00;;;;5109382;28;20210;-85
2023/12/11 08:07:07;;;;;;;1.30;1.20;;;11.90;84.40;10.80;95403.00;;;;5115376;28;20190;-84
2023/12/11 08:09:39;;;;;;;1.30;1.20;;;12.00;84.40;10.90;95393.00;;;;5106790;28;20718;-84
2023/12/11 08:12:08;;;;;;;1.70;1.60;;;12.00;84.10;11.00;95387.00;;;;5115685;28;20218;-84
2023/12/11 08:14:35;;;;;;;4.93;3.07;;;12.10;84.10;11.00;95397.00;;;;5110234;28;20289;-84
2023/12/11 08:17:03;;;;;;;2.77;2.40;;;12.10;84.00;11.00;95393.00;;;;5115842;28;20191;-84
2023/12/11 08:19:30;;;;;;;1.60;1.50;;;12.20;84.00;11.10;95387.00;;;;5108996;28;20202;-84
2023/12/11 08:22:17;;;;;;;1.30;1.00;;;12.20;84.00;11.10;95383.00;;;;5108917;28;20201;-85
2023/12/11 08:24:52;;;;;;;1.50;1.40;;;12.30;84.00;11.20;95381.00;;;;5106906;28;20308;-84
2023/12/11 08:27:19;;;;;;;1.63;1.47;;;12.30;83.90;11.20;95379.00;;;;5116011;27;20247;-82
2023/12/11 08:29:46;;;;;;;1.40;1.30;;;12.40;83.90;11.30;95385.00;;;;5112182;28;20616;-82
2023/12/11 08:32:14;;;;;;;1.20;1.10;;;12.40;83.70;11.30;95398.00;;;;5125841;27;20279;-84
2023/12/11 08:34:41;;;;;;;1.20;1.10;;;12.40;83.80;11.40;95398.00;;;;5110048;28;20216;-82
2023/12/11 08:37:09;;;;;;;0.90;0.90;;;12.50;84.00;11.40;95399.00;;;;5112936;28;20200;-82
2023/12/11 08:39:36;;;;;;;0.83;0.83;;;12.60;84.10;11.50;95381.00;;;;5115217;28;20222;-82
2023/12/11 08:42:05;;;;;;;0.80;0.80;;;12.60;84.00;11.50;95378.00;;;;5120309;28;20209;-82
2023/12/11 08:44:33;;;;;;;0.67;0.67;;;12.70;84.00;11.60;95369.00;;;;5106951;28;20223;-82
2023/12/11 08:47:28;;;;;;;1.07;0.97;;;12.70;84.00;11.60;95359.00;;;;5107860;28;20252;-84
2023/12/11 08:50:18;;;;;;;1.00;0.90;;;12.80;83.80;11.70;95387.00;;;;5102003;28;20377;-85
2023/12/11 08:52:46;;;;;;;2.23;1.90;;;12.80;83.70;11.70;95385.00;;;;5121672;28;20267;-84
2023/12/11 08:55:13;;;;;;;1.93;1.40;;;12.90;83.70;11.80;95370.00;;;;5123089;27;20214;-85
2023/12/11 08:57:44;;;;;;;1.47;1.37;;;13.00;83.70;11.80;95370.00;;;;5107454;28;20206;-85
2023/12/11 09:00:16;;;;;;;1.30;1.20;;;13.00;83.40;11.90;95365.00;;;;5122130;27;20277;-85
2023/12/11 09:02:44;;;;;;;1.37;1.27;;;13.00;83.20;11.90;95374.00;;;;5103592;28;20188;-85
2023/12/11 09:05:11;;;;;;;1.53;1.43;;;13.00;83.30;11.90;95396.00;;;;5100536;28;20305;-85
2023/12/11 09:07:39;;;;;;;2.40;1.90;;;13.10;83.30;11.90;95399.00;;;;5104960;28;20677;-84
2023/12/11 09:10:09;;;;;;;1.70;1.60;;;13.10;83.20;11.90;95402.00;;;;5101601;28;20195;-86
2023/12/11 09:12:41;;;;;;;2.10;1.40;;;13.10;83.00;12.00;95418.00;;;;5081232;28;20579;-84
2023/12/11 09:15:11;;;;;;;1.80;1.70;;;13.10;82.90;12.00;95427.00;;;;5104860;28;20219;-85
2023/12/11 09:17:39;;;;;;;2.17;1.93;;;13.20;83.00;12.00;95412.00;;;;5101487;28;20200;-85
2023/12/11 09:20:09;;;;;;;2.60;1.60;;;13.20;83.10;12.10;95394.00;;;;5102483;28;20195;-85
2023/12/11 09:22:38;;;;;;;1.50;1.40;;;13.20;83.00;12.10;95421.00;;;;5101351;28;20199;-85
2023/12/11 09:25:08;;;;;;;1.00;1.00;;;13.20;82.80;12.10;95435.00;;;;5104407;28;20210;-84
2023/12/11 09:27:35;;;;;;;1.30;1.13;;;13.30;82.60;12.10;95438.00;;;;5102483;28;20196;-85
2023/12/11 09:30:06;;;;;;;1.60;1.50;;;13.30;82.50;12.10;95424.00;;;;5099936;28;20203;-85
2023/12/11 09:32:35;;;;;;;1.60;1.43;;;13.30;82.50;12.10;95412.00;;;;5090663;28;20227;-85
2023/12/11 09:35:02;;;;;;;2.30;1.73;;;13.30;82.60;12.10;95393.00;;;;5103035;28;20208;-84
2023/12/11 09:37:34;;;;;;;1.73;1.50;;;13.30;82.70;12.20;95409.00;;;;5102357;28;20261;-85
2023/12/11 09:40:06;;;;;;;1.67;1.57;;;13.30;82.70;12.20;95426.00;;;;5093534;28;20221;-85
2023/12/11 09:42:38;;;;;;;1.77;1.60;;;13.40;82.70;12.20;95412.00;;;;5092910;28;20218;-85
2023/12/11 09:45:10;;;;;;;2.00;1.70;;;13.40;82.60;12.20;95414.00;;;;5099059;28;20225;-84
2023/12/11 09:47:47;;;;;;;1.50;1.40;;;13.40;82.50;12.20;95391.00;;;;5094955;28;20200;-85
2023/12/11 09:50:15;;;;;;;1.50;1.03;;;13.40;82.00;12.20;95382.00;;;;5098355;28;20233;-85
2023/12/11 09:52:43;;;;;;;1.07;0.70;;;13.40;81.70;12.10;95372.00;;;;5102298;28;20212;-85
2023/12/11 09:55:12;;;;;;;0.70;0.70;;;13.40;81.40;12.10;95376.00;;;;5100781;28;20238;-84
2023/12/11 09:57:42;;;;;;;1.10;1.00;;;13.40;81.20;12.10;95378.00;;;;5092526;28;20228;-85
2023/12/11 10:00:11;;;;;;;0.80;0.80;;;13.40;81.10;12.00;95389.00;;;;5099330;28;20192;-84
2023/12/11 10:02:42;;;;;;;0.80;0.80;;;13.40;81.00;12.00;95378.00;;;;5096355;28;20192;-85
2023/12/11 10:05:11;;;;;;;0.60;0.60;;;13.40;80.90;12.00;95355.00;;;;5115639;28;20226;-84
2023/12/11 10:07:42;;;;;;;0.80;0.80;;;13.30;80.80;11.90;95351.00;;;;5105572;28;20204;-85
2023/12/11 10:10:33;;;;;;;0.73;0.73;;;13.30;80.60;11.90;95372.00;;;;5099052;28;20290;-85
2023/12/11 10:13:01;;;;;;;1.17;0.90;;;13.30;79.80;11.90;95362.00;;;;5094719;28;20202;-84
2023/12/11 10:15:32;;;;;;;0.77;0.77;;;13.30;81.10;12.00;95394.00;;;;5106143;28;20241;-84
2023/12/11 10:18:11;;;;;;;0.70;0.70;;;13.30;81.30;12.00;95415.00;;;;5100869;28;20640;-85
2023/12/11 10:20:41;;;;;;;0.60;0.60;;;13.30;81.00;12.00;95433.00;;;;5099363;28;20218;-83
2023/12/11 10:23:15;;;;;;;0.83;0.83;;;13.30;81.40;12.00;95438.00;;;;5098752;28;20579;-85
2023/12/11 10:25:44;;;;;;;1.27;0.90;;;13.30;81.70;12.00;95421.00;;;;5097959;28;20286;-84
2023/12/11 10:28:15;;;;;;;0.70;0.70;;;13.30;81.20;12.00;95422.00;;;;5096938;28;20199;-85
2023/12/11 10:30:55;;;;;;;1.30;0.93;;;13.30;81.20;11.90;95419.00;;;;5089542;28;20434;-84
2023/12/11 10:33:26;;;;;;;2.00;1.50;;;13.30;81.40;11.90;95417.00;;;;5089760;28;20658;-85
2023/12/11 10:35:54;;;;;;;2.93;1.10;;;13.30;80.90;11.90;95400.00;;;;5094870;28;20297;-85
2023/12/11 10:38:23;;;;;;;2.30;1.50;;;13.30;81.70;11.90;95394.00;;;;5087423;28;20195;-84
2023/12/11 10:40:50;;;;;;;3.30;1.60;;;13.30;81.70;11.90;95393.00;;;;5099306;28;20204;-85
2023/12/11 10:43:18;;;;;;;1.30;1.20;;;13.20;81.00;11.90;95377.00;;;;5086589;28;20263;-85
2023/12/11 10:45:47;;;;;;;1.07;0.97;;;13.20;81.10;11.90;95361.00;;;;5096680;28;20222;-85
2023/12/11 10:48:14;;;;;;;0.70;0.70;;;13.20;81.00;11.90;95372.00;;;;5082697;28;20713;-85
2023/12/11 10:50:44;;;;;;;0.73;0.73;;;13.20;81.00;11.90;95371.00;;;;5093458;28;20215;-84
2023/12/11 10:53:13;;;;;;;1.07;0.80;;;13.20;80.90;11.80;95378.00;;;;5094823;28;20195;-85
2023/12/11 10:55:41;;;;;;;1.13;1.13;;;13.20;81.10;11.90;95364.00;;;;5085188;28;20216;-84
2023/12/11 10:58:09;;;;;;;1.40;0.90;;;13.20;82.00;11.90;95361.00;;;;5101715;28;20206;-84
2023/12/11 11:00:39;;;;;;;1.33;0.90;;;13.20;81.40;11.90;95363.00;;;;5092515;28;20659;-84
2023/12/11 11:03:12;;;;;;;0.93;0.90;;;13.20;81.70;12.00;95368.00;;;;5099936;28;20230;-84